createdAt,value
2019-02-23T00:02:39.123Z,9.43
2019-02-23T00:05:19.121Z,12.07
2019-02-23T00:07:59.090Z,9.53
2019-02-23T00:10:39.170Z,10.30
2019-02-23T00:13:19.039Z,7.67
2019-02-23T00:15:59.098Z,10.63
2019-02-23T00:18:38.875Z,9.93
2019-02-23T00:21:18.926Z,11.18
2019-02-23T00:23:59.223Z,10.43
2019-02-23T00:26:39.250Z,8.43
2019-02-23T00:29:19.497Z,12.00
2019-02-23T00:31:58.975Z,12.05
2019-02-23T00:34:38.468Z,9.85
2019-02-23T00:37:18.388Z,11.00
2019-02-23T00:39:58.749Z,10.60
2019-02-23T00:42:39.279Z,13.32
2019-02-23T00:45:18.927Z,13.70
2019-02-23T00:48:00.353Z,11.30
2019-02-23T00:50:40.597Z,12.33
2019-02-23T00:53:20.726Z,13.62
2019-02-23T00:56:00.531Z,15.20
2019-02-23T00:58:40.947Z,10.93
2019-02-23T01:01:21.033Z,11.70
2019-02-23T01:07:08.262Z,13.22
2019-02-23T01:09:47.708Z,13.95
2019-02-23T01:12:28.536Z,12.20
2019-02-23T01:15:08.099Z,11.70
2019-02-23T01:17:48.371Z,11.53
2019-02-23T01:20:28.271Z,13.22
2019-02-23T01:23:08.318Z,15.60
2019-02-23T01:25:48.322Z,11.45
2019-02-23T01:31:17.734Z,12.47
2019-02-23T01:33:57.834Z,12.63
2019-02-23T01:36:37.724Z,14.45
2019-02-23T01:39:21.144Z,11.57
2019-02-23T01:42:01.184Z,12.82
2019-02-23T01:44:41.310Z,10.98
2019-02-23T01:53:21.146Z,14.68
2019-02-23T01:56:01.034Z,11.80
2019-02-23T02:01:37.305Z,10.30
2019-02-23T02:04:17.594Z,11.20
2019-02-23T02:06:57.562Z,12.35
2019-02-23T02:09:37.748Z,11.63
2019-02-23T02:12:18.568Z,11.00
2019-02-23T02:14:58.017Z,12.95
2019-02-23T02:17:38.119Z,10.75
2019-02-23T02:20:18.130Z,14.05
2019-02-23T02:22:58.316Z,10.50
2019-02-23T02:25:38.668Z,12.18
2019-02-23T02:34:14.451Z,13.20
2019-02-23T02:36:54.445Z,11.95
2019-02-23T02:39:35.020Z,12.95
2019-02-23T02:42:14.979Z,12.05
2019-02-23T02:44:54.809Z,15.13
2019-02-23T02:47:34.657Z,11.25
2019-02-23T02:50:23.819Z,10.08
2019-02-23T02:52:56.883Z,8.65
2019-02-23T02:55:34.966Z,11.95
2019-02-23T03:01:20.465Z,14.45
2019-02-23T03:04:00.696Z,12.40
2019-02-23T03:06:41.197Z,11.53
2019-02-23T03:09:20.909Z,12.37
2019-02-23T03:12:01.135Z,11.25
2019-02-23T03:14:41.143Z,11.48
2019-02-23T03:17:21.077Z,12.75
2019-02-23T03:20:01.171Z,10.03
2019-02-23T03:22:41.449Z,12.45
2019-02-23T03:25:21.433Z,10.63
2019-02-23T03:28:01.178Z,12.25
2019-02-23T03:30:41.265Z,15.43
2019-02-23T03:33:21.155Z,11.10
2019-02-23T03:36:01.375Z,11.80
2019-02-23T03:38:41.976Z,11.48
2019-02-23T03:41:21.380Z,14.45
2019-02-23T03:44:00.784Z,12.73
2019-02-23T03:46:41.154Z,14.65
2019-02-23T03:49:21.369Z,14.25
2019-02-23T03:52:01.621Z,12.78
2019-02-23T03:54:41.910Z,13.20
2019-02-23T03:57:21.930Z,12.73
2019-02-23T04:00:01.885Z,11.48
2019-02-23T04:02:41.477Z,15.78
2019-02-23T04:05:21.726Z,13.30
2019-02-23T04:08:02.554Z,14.30
2019-02-23T04:10:42.035Z,12.13
2019-02-23T04:13:21.939Z,14.28
2019-02-23T04:18:41.386Z,12.75
2019-02-23T04:21:21.407Z,12.10
2019-02-23T04:24:01.244Z,16.48
2019-02-23T04:26:41.129Z,14.68
2019-02-23T04:29:21.204Z,17.27
2019-02-23T04:32:01.163Z,21.85
2019-02-23T04:34:41.128Z,12.00
2019-02-23T04:37:21.314Z,17.92
2019-02-23T04:40:01.577Z,19.42
2019-02-23T04:42:41.262Z,19.98
2019-02-23T04:45:21.026Z,20.00
2019-02-23T04:48:01.145Z,17.20
2019-02-23T04:50:41.341Z,18.20
2019-02-23T04:53:22.394Z,20.23
2019-02-23T04:56:02.488Z,18.52
2019-02-23T04:58:42.551Z,16.00
2019-02-23T05:01:22.631Z,14.30
2019-02-23T05:04:02.864Z,18.40
2019-02-23T05:09:32.225Z,19.32
2019-02-23T05:15:01.694Z,21.45
2019-02-23T05:17:41.229Z,17.25
2019-02-23T05:20:21.258Z,17.87
2019-02-23T05:23:01.133Z,19.65
2019-02-23T05:25:41.387Z,16.85
2019-02-23T05:28:21.558Z,19.15
2019-02-23T05:31:01.571Z,18.65
2019-02-23T05:33:42.017Z,15.38
2019-02-23T05:36:21.984Z,18.57
2019-02-23T05:39:02.053Z,18.05
2019-02-23T05:41:46.978Z,20.65
2019-02-23T05:44:27.367Z,17.85
2019-02-23T05:47:07.413Z,18.75
2019-02-23T05:49:47.617Z,20.48
2019-02-23T05:52:27.647Z,19.48
2019-02-23T05:55:08.285Z,19.23
2019-02-23T05:57:48.163Z,15.98
2019-02-23T06:00:27.895Z,18.67
2019-02-23T06:03:11.131Z,20.23
2019-02-23T06:05:50.877Z,18.67
2019-02-23T06:08:30.954Z,20.50
2019-02-23T06:11:11.112Z,20.72
2019-02-23T06:13:51.520Z,20.00
2019-02-23T06:16:31.570Z,23.10
2019-02-23T06:19:11.492Z,22.80
2019-02-23T06:21:54.028Z,22.05
2019-02-23T06:24:35.594Z,22.22
2019-02-23T06:27:15.303Z,19.48
2019-02-23T06:29:56.890Z,22.20
2019-02-23T06:32:37.991Z,26.45
2019-02-23T06:35:17.627Z,20.08
2019-02-23T06:37:57.720Z,20.90
2019-02-23T06:40:37.755Z,20.05
2019-02-23T06:43:18.292Z,20.12
2019-02-23T06:45:58.232Z,20.40
2019-02-23T06:48:38.199Z,18.92
2019-02-23T06:51:18.438Z,26.15
2019-02-23T06:53:58.378Z,21.00
2019-02-23T06:56:38.757Z,20.40
2019-02-23T06:59:19.268Z,24.43
2019-02-23T07:01:59.137Z,26.55
2019-02-23T07:04:39.113Z,17.80
2019-02-23T07:07:18.948Z,22.48
2019-02-23T07:09:59.192Z,24.52
2019-02-23T07:12:39.589Z,22.40
2019-02-23T07:15:19.427Z,24.55
2019-02-23T07:17:59.455Z,19.70
2019-02-23T07:20:44.226Z,17.82
2019-02-23T07:23:21.674Z,20.60
2019-02-23T07:26:01.940Z,21.42
2019-02-23T07:28:41.741Z,15.28
2019-02-23T07:31:22.035Z,15.95
2019-02-23T07:34:02.082Z,17.12
2019-02-23T07:36:41.901Z,21.33
2019-02-23T07:39:22.105Z,19.98
2019-02-23T07:42:02.385Z,20.15
2019-02-23T07:44:42.556Z,18.80
2019-02-23T07:47:23.188Z,18.62
2019-02-23T07:50:05.053Z,19.67
2019-02-23T07:52:33.215Z,22.95
2019-02-23T07:55:20.012Z,18.43
2019-02-23T07:58:01.709Z,15.18
2019-02-23T08:00:41.791Z,16.40
2019-02-23T08:03:21.809Z,16.20
2019-02-23T08:06:02.003Z,16.60
2019-02-23T08:08:41.756Z,16.83
2019-02-23T08:11:22.099Z,16.83
2019-02-23T08:14:02.120Z,16.77
2019-02-23T08:16:41.541Z,14.63
2019-02-23T08:19:22.675Z,16.37
2019-02-23T08:22:02.940Z,17.07
2019-02-23T08:24:43.331Z,16.00
2019-02-23T08:33:44.421Z,14.53
2019-02-23T08:36:24.317Z,15.10
2019-02-23T08:39:04.235Z,18.33
2019-02-23T08:41:46.323Z,16.17
2019-02-23T08:44:26.832Z,15.03
2019-02-23T08:47:06.735Z,14.03
2019-02-23T08:49:46.440Z,15.60
2019-02-23T08:52:26.823Z,12.83
2019-02-23T08:55:06.755Z,14.80
2019-02-23T08:57:47.096Z,15.70
2019-02-23T09:00:27.133Z,12.83
2019-02-23T09:03:07.459Z,12.80
2019-02-23T09:05:47.345Z,13.67
2019-02-23T09:08:27.253Z,12.43
2019-02-23T09:11:07.559Z,16.13
2019-02-23T09:13:47.526Z,13.07
2019-02-23T09:16:27.831Z,14.33
2019-02-23T09:19:07.758Z,12.20
2019-02-23T09:21:47.656Z,14.10
2019-02-23T09:24:28.197Z,12.50
2019-02-23T09:27:08.045Z,13.93
2019-02-23T09:29:47.669Z,14.70
2019-02-23T09:32:27.795Z,13.37
2019-02-23T09:35:07.775Z,12.90
2019-02-23T09:37:48.553Z,14.30
2019-02-23T09:40:28.894Z,12.63
2019-02-23T09:43:09.111Z,12.53
2019-02-23T09:45:48.500Z,15.37
2019-02-23T09:48:28.829Z,13.03
2019-02-23T09:51:08.881Z,14.03
2019-02-23T09:53:49.087Z,12.80
2019-02-23T09:56:29.437Z,15.43
2019-02-23T10:01:49.378Z,14.70
2019-02-23T10:04:30.060Z,13.40
2019-02-23T10:07:10.493Z,14.30
2019-02-23T10:09:50.273Z,17.10
2019-02-23T10:12:31.154Z,13.27
2019-02-23T10:15:11.202Z,13.70
2019-02-23T10:17:51.956Z,11.77
2019-02-23T10:20:32.326Z,12.10
2019-02-23T10:23:21.549Z,16.00
2019-02-23T10:25:54.672Z,12.07
2019-02-23T10:28:34.526Z,12.50
2019-02-23T10:31:14.518Z,11.40
2019-02-23T10:33:54.562Z,12.97
2019-02-23T10:36:34.427Z,12.97
2019-02-23T10:39:14.308Z,13.37
2019-02-23T10:41:54.142Z,12.53
2019-02-23T10:44:34.304Z,13.37
2019-02-23T10:47:14.151Z,13.23
2019-02-23T10:49:54.984Z,10.67
2019-02-23T10:52:34.532Z,12.13
2019-02-23T10:55:14.717Z,13.80
2019-02-23T10:57:55.918Z,13.20
2019-02-23T11:00:35.919Z,12.40
2019-02-23T11:03:15.962Z,13.60
2019-02-23T11:05:56.262Z,12.83
2019-02-23T11:08:36.455Z,12.87
2019-02-23T11:11:16.472Z,13.80
2019-02-23T11:13:57.060Z,12.93
2019-02-23T11:16:36.591Z,12.50
2019-02-23T11:19:16.596Z,13.17
2019-02-23T11:21:56.694Z,13.77
2019-02-23T11:24:37.089Z,15.00
2019-02-23T11:27:17.215Z,12.57
2019-02-23T11:29:57.508Z,11.53
2019-02-23T11:32:36.996Z,12.37
2019-02-23T11:35:17.584Z,10.57
2019-02-23T11:37:58.607Z,13.13
2019-02-23T11:40:39.061Z,12.13
2019-02-23T11:43:18.979Z,12.73
2019-02-23T11:45:58.947Z,9.33
2019-02-23T11:48:39.477Z,11.07
2019-02-23T11:51:19.092Z,11.23
2019-02-23T11:53:59.573Z,10.33
2019-02-23T11:56:39.195Z,11.10
2019-02-23T11:59:19.287Z,11.73
2019-02-23T12:01:59.380Z,11.57
2019-02-23T12:04:39.149Z,9.60
2019-02-23T12:07:19.566Z,10.53
2019-02-23T12:09:59.312Z,11.53
2019-02-23T12:12:39.723Z,10.93
2019-02-23T12:15:19.734Z,10.97
2019-02-23T12:17:59.868Z,11.83
2019-02-23T12:20:39.875Z,8.03
2019-02-23T12:23:20.070Z,12.03
2019-02-23T12:25:59.878Z,9.70
2019-02-23T12:28:39.888Z,9.40
2019-02-23T12:31:19.786Z,9.23
2019-02-23T12:34:00.482Z,8.90
2019-02-23T12:36:40.262Z,9.70
2019-02-23T12:39:20.581Z,10.13
2019-02-23T12:44:46.993Z,9.27
2019-02-23T12:47:28.048Z,11.50
2019-02-23T12:50:11.922Z,10.03
2019-02-23T12:52:52.157Z,8.93
2019-02-23T12:58:12.586Z,9.63
2019-02-23T13:00:52.350Z,8.33
2019-02-23T13:03:32.731Z,8.87
2019-02-23T13:06:12.338Z,7.73
2019-02-23T13:08:53.068Z,7.90
2019-02-23T13:11:33.182Z,8.10
2019-02-23T13:14:13.712Z,7.70
2019-02-23T13:16:53.603Z,7.47
2019-02-23T13:19:33.700Z,10.33
2019-02-23T13:22:13.598Z,8.23
2019-02-23T13:24:53.562Z,9.07
2019-02-23T13:27:33.860Z,8.17
2019-02-23T13:30:14.246Z,9.40
2019-02-23T13:32:54.583Z,8.13
2019-02-23T13:35:34.763Z,6.50
2019-02-23T13:38:14.669Z,8.67
2019-02-23T13:40:54.656Z,8.90
2019-02-23T13:43:34.907Z,10.50
2019-02-23T13:46:15.238Z,10.80
2019-02-23T13:48:54.899Z,9.30
2019-02-23T13:51:34.651Z,8.13
2019-02-23T13:54:14.923Z,9.10
2019-02-23T13:56:54.944Z,10.00
2019-02-23T13:59:34.919Z,9.37
2019-02-23T14:02:15.303Z,9.33
2019-02-23T14:04:55.700Z,9.03
2019-02-23T14:07:35.354Z,8.47
2019-02-23T14:10:15.108Z,8.67
2019-02-23T14:12:55.083Z,11.03
2019-02-23T14:15:35.333Z,9.03
2019-02-23T14:18:15.282Z,9.10
2019-02-23T14:20:55.199Z,11.40
2019-02-23T14:23:35.639Z,9.13
2019-02-23T14:26:15.679Z,9.50
2019-02-23T14:28:56.233Z,11.23
2019-02-23T14:31:55.244Z,7.90
2019-02-23T14:38:27.333Z,12.23
2019-02-23T14:41:10.941Z,9.57
2019-02-23T14:43:50.438Z,9.73
2019-02-23T14:46:30.570Z,9.77
2019-02-23T14:49:10.775Z,9.17
2019-02-23T14:51:50.782Z,6.50
2019-02-23T14:54:30.701Z,8.93
2019-02-23T14:57:10.480Z,9.20
2019-02-23T14:59:50.730Z,9.90
2019-02-23T15:02:30.932Z,9.33
2019-02-23T15:05:10.819Z,9.20
2019-02-23T15:07:51.449Z,9.17
2019-02-23T15:10:32.037Z,8.70
2019-02-23T15:13:11.449Z,9.20
2019-02-23T15:15:51.944Z,8.77
2019-02-23T15:18:31.996Z,9.00
2019-02-23T15:21:12.082Z,8.97
2019-02-23T15:23:52.012Z,9.73
2019-02-23T15:26:32.229Z,8.63
2019-02-23T15:29:12.424Z,10.20
2019-02-23T15:31:53.358Z,8.70
2019-02-23T15:34:33.729Z,7.80
2019-02-23T15:37:13.743Z,8.77
2019-02-23T15:39:53.630Z,8.97
2019-02-23T15:42:33.841Z,8.60
2019-02-23T15:45:14.734Z,9.00
2019-02-23T15:47:54.495Z,8.30
2019-02-23T15:50:34.110Z,8.83
2019-02-23T15:53:14.295Z,7.97
2019-02-23T15:55:54.368Z,8.77
2019-02-23T15:58:34.395Z,10.40
2019-02-23T16:01:14.405Z,9.03
2019-02-23T16:03:54.225Z,8.90
2019-02-23T16:06:34.143Z,7.60
2019-02-23T16:09:14.240Z,9.37
2019-02-23T16:11:54.255Z,9.30
2019-02-23T16:14:34.241Z,12.23
2019-02-23T16:17:14.021Z,12.73
2019-02-23T16:19:54.272Z,8.30
2019-02-23T16:22:34.160Z,9.80
2019-02-23T16:25:14.169Z,10.13
2019-02-23T16:27:54.476Z,8.87
2019-02-23T16:30:34.360Z,10.93
2019-02-23T16:35:59.888Z,10.53
2019-02-23T16:38:40.173Z,9.50
2019-02-23T16:41:20.266Z,12.23
2019-02-23T16:44:01.581Z,9.13
2019-02-23T16:46:41.424Z,12.40
2019-02-23T16:49:21.583Z,9.90
2019-02-23T16:52:01.579Z,13.37
2019-02-23T16:54:41.615Z,9.03
2019-02-23T16:57:21.647Z,9.63
2019-02-23T17:00:01.707Z,11.53
2019-02-23T17:02:49.685Z,10.50
2019-02-23T17:05:29.316Z,10.33
2019-02-23T17:08:09.346Z,10.30
2019-02-23T17:13:29.648Z,9.67
2019-02-23T17:16:09.568Z,11.27
2019-02-23T17:18:49.633Z,10.13
2019-02-23T17:21:29.309Z,9.67
2019-02-23T17:24:09.508Z,10.33
2019-02-23T17:26:49.799Z,12.57
2019-02-23T17:29:29.472Z,9.13
2019-02-23T17:32:09.745Z,9.87
2019-02-23T17:34:53.008Z,9.70
2019-02-23T17:37:33.754Z,9.93
2019-02-23T17:40:15.173Z,11.45
2019-02-23T17:42:55.162Z,10.35
2019-02-23T17:45:35.704Z,11.88
2019-02-23T17:48:15.443Z,9.58
2019-02-23T17:50:55.375Z,10.90
2019-02-23T17:53:35.234Z,10.40
2019-02-23T17:56:15.524Z,11.43
2019-02-23T17:58:55.577Z,12.60
2019-02-23T18:01:35.763Z,9.75
2019-02-23T18:04:15.760Z,9.28
2019-02-23T18:06:55.917Z,13.20
2019-02-23T18:09:35.653Z,10.25
2019-02-23T18:12:15.875Z,10.60
2019-02-23T18:14:56.037Z,8.83
2019-02-23T18:17:35.688Z,10.95
2019-02-23T18:20:16.749Z,11.33
2019-02-23T18:22:56.874Z,12.23
2019-02-23T18:25:37.476Z,10.63
2019-02-23T18:28:17.572Z,12.50
2019-02-23T18:30:57.571Z,10.38
2019-02-23T18:33:38.198Z,11.38
2019-02-23T18:36:19.855Z,12.43
2019-02-23T18:38:59.565Z,11.75
2019-02-23T18:41:39.720Z,8.65
2019-02-23T18:44:20.219Z,8.73
2019-02-23T18:47:00.919Z,11.18
2019-02-23T18:49:41.911Z,11.48
2019-02-23T18:52:21.853Z,11.40
2019-02-23T18:55:03.610Z,9.60
2019-02-23T18:57:45.352Z,11.28
2019-02-23T19:00:25.319Z,10.30
2019-02-23T19:03:05.467Z,10.28
2019-02-23T19:05:49.849Z,10.72
2019-02-23T19:08:27.439Z,12.23
2019-02-23T19:11:07.477Z,10.93
2019-02-23T19:13:47.656Z,12.05
2019-02-23T19:16:27.313Z,12.55
2019-02-23T19:19:07.399Z,15.15
2019-02-23T19:21:48.704Z,11.93
2019-02-23T19:24:29.250Z,11.90
2019-02-23T19:27:09.175Z,11.38
2019-02-23T19:29:49.309Z,13.05
2019-02-23T19:32:29.312Z,11.88
2019-02-23T19:35:09.384Z,11.38
2019-02-23T19:37:49.039Z,11.43
2019-02-23T19:40:29.218Z,11.53
2019-02-23T19:43:09.418Z,13.35
2019-02-23T19:45:49.582Z,14.40
2019-02-23T19:48:29.467Z,16.67
2019-02-23T19:51:09.405Z,12.95
2019-02-23T19:53:49.764Z,13.25
2019-02-23T19:56:30.017Z,10.95
2019-02-23T19:59:10.508Z,11.50
2019-02-23T20:01:50.534Z,15.13
2019-02-23T20:04:30.690Z,18.27
2019-02-23T20:09:50.805Z,15.18
2019-02-23T20:12:30.537Z,14.93
2019-02-23T20:15:11.155Z,16.65
2019-02-23T20:17:52.108Z,21.37
2019-02-23T20:20:32.861Z,15.58
2019-02-23T20:23:12.778Z,15.95
2019-02-23T20:25:54.163Z,16.77
2019-02-23T20:28:34.129Z,13.88
2019-02-23T20:31:14.230Z,12.25
2019-02-23T20:33:54.333Z,14.65
2019-02-23T20:36:35.389Z,13.80
2019-02-23T20:39:15.840Z,14.93
2019-02-23T20:41:55.778Z,16.27
2019-02-23T20:44:36.232Z,15.10
2019-02-23T20:47:17.392Z,16.05
2019-02-23T20:49:58.499Z,11.57
2019-02-23T20:52:38.165Z,13.70
2019-02-23T20:55:18.479Z,14.15
2019-02-23T20:57:58.628Z,12.55
2019-02-23T21:00:38.626Z,12.75
2019-02-23T21:03:18.935Z,13.30
2019-02-23T21:05:59.184Z,12.03
2019-02-23T21:08:39.006Z,11.22
2019-02-23T21:11:20.538Z,11.45
2019-02-23T21:14:01.591Z,14.03
2019-02-23T21:16:41.553Z,11.85
2019-02-23T21:19:21.718Z,13.13
2019-02-23T21:22:01.635Z,13.20
2019-02-23T21:24:41.665Z,10.18
2019-02-23T21:27:22.039Z,11.20
2019-02-23T21:30:01.899Z,14.63
2019-02-23T21:32:54.777Z,12.55
2019-02-23T21:35:39.335Z,12.30
2019-02-23T21:38:19.083Z,11.65
2019-02-23T21:40:59.131Z,10.45
2019-02-23T21:43:39.401Z,14.68
2019-02-23T21:46:19.295Z,13.93
2019-02-23T21:48:58.917Z,10.68
2019-02-23T21:51:38.411Z,11.60
2019-02-23T21:54:18.443Z,14.30
2019-02-23T21:56:58.301Z,14.65
2019-02-23T21:59:38.506Z,14.87
2019-02-23T22:02:18.572Z,10.60
2019-02-23T22:04:59.920Z,14.80
2019-02-23T22:07:39.293Z,18.32
2019-02-23T22:10:19.340Z,14.73
2019-02-23T22:12:59.702Z,17.00
2019-02-23T22:15:40.138Z,15.35
2019-02-23T22:18:20.001Z,13.85
2019-02-23T22:20:59.870Z,11.80
2019-02-23T22:23:39.985Z,14.68
2019-02-23T22:26:19.880Z,11.88
2019-02-23T22:28:59.910Z,14.35
2019-02-23T22:31:40.120Z,16.60
2019-02-23T22:34:20.194Z,13.85
2019-02-23T22:36:59.894Z,13.80
2019-02-23T22:39:40.225Z,13.55
2019-02-23T22:42:20.870Z,13.08
2019-02-23T22:45:01.420Z,12.82
2019-02-23T22:47:42.238Z,13.90
2019-02-23T22:50:22.820Z,16.12
2019-02-23T22:55:43.477Z,12.45
2019-02-23T22:58:11.025Z,19.07
2019-02-23T23:01:01.454Z,15.38
2019-02-23T23:03:43.447Z,11.88
2019-02-23T23:06:23.053Z,13.43
2019-02-23T23:09:03.179Z,13.28
2019-02-23T23:11:44.834Z,13.62
2019-02-23T23:14:25.477Z,14.68
2019-02-23T23:17:07.047Z,12.30
2019-02-23T23:19:47.419Z,14.58
2019-02-23T23:22:28.169Z,13.80
2019-02-23T23:25:08.028Z,12.73
2019-02-23T23:27:49.505Z,15.90
2019-02-23T23:30:30.169Z,15.63
2019-02-23T23:33:09.986Z,13.25
2019-02-23T23:35:49.840Z,12.93
2019-02-23T23:38:28.031Z,14.58
2019-02-23T23:41:14.840Z,14.00
2019-02-23T23:43:54.233Z,13.40
2019-02-23T23:46:35.179Z,13.40
2019-02-23T23:49:14.945Z,15.08
2019-02-23T23:51:54.692Z,13.88
2019-02-23T23:54:34.595Z,12.95
2019-02-23T23:57:15.013Z,11.90
2019-02-23T23:59:54.985Z,11.88
